Lorraine — VZQ3853 — position and weather

sailwx.info

Track history (hours):
 
Tides and Currents Weather Stations Pressure Air Temp Water Temp Dewpoint Dewpoint Depression Visibility Wind Speed Wind Dir Waves Ship Positions

Lorraine

Last reported at 2013-Oct-29 22:23 UTC. Time now 2014-Oct-20 23:00 UTC.
Position S 23°48' E 151°12'.
Warning: this ship's position is months out of date.

Length 15 m.

Type: Tug. MMSI: 503500800.

Date/timePositionNaut miles runAvg speedWind from/ knotsBaromVisibWave heightAir tempDewpointWater temp
2013-Oct-29 22:23S 23°48' E 151°12'1 1.6
2013-Oct-29 21:28S 23°47' E 151°10'0 0.0
2013-Oct-29 20:30S 23°47' E 151°10'3 0.2
2013-Oct-29 07:26S 23°48' E 151°13'2 1.8
2013-Oct-29 06:33S 23°48' E 151°12'1 0.5
2013-Oct-29 05:27S 23°47' E 151°11'1 0.6
2013-Oct-29 04:30S 23°47' E 151°11'1 1.2
2013-Oct-29 03:28S 23°47' E 151°12'1 0.8
2013-Oct-29 02:33S 23°48' E 151°12'1 0.6
2013-Oct-29 01:30S 23°48' E 151°12'1 0.8
2013-Oct-29 00:32S 23°47' E 151°12'0 0.1
2013-Oct-28 23:32S 23°47' E 151°12'0 0.0
2013-Oct-28 22:32S 23°47' E 151°12'1 0.7
2013-Oct-28 21:30S 23°48' E 151°12'2 1.9
2013-Oct-28 20:25S 23°47' E 151°10'4 4.4
2013-Oct-28 19:32S 23°49' E 151°14'1 0.1
2013-Oct-28 07:06S 23°50' E 151°14'3 5.0
2013-Oct-28 06:27S 23°47' E 151°12'1 0.5
2013-Oct-28 05:29S 23°48' E 151°12'1 0.8
2013-Oct-28 04:25S 23°47' E 151°12'0 0.1
2013-Oct-28 03:22S 23°47' E 151°12'1 1.7
2013-Oct-28 02:34S 23°46' E 151°11'3 1.4
2013-Oct-28 00:09S 23°48' E 151°13'3 5.7
2013-Oct-27 23:33S 23°46' E 151°11'2 1.5
2013-Oct-27 22:29S 23°47' E 151°10'2 1.4
2013-Oct-27 21:16S 23°47' E 151°12'0 0.0
2013-Oct-27 20:31S 23°47' E 151°12'0 0.0
2013-Oct-26 07:30S 23°47' E 151°12'1 0.5
2013-Oct-26 06:22S 23°48' E 151°13'1 0.4
2013-Oct-26 04:30S 23°47' E 151°12'1 0.4
2013-Oct-26 02:26S 23°47' E 151°13'1 0.5
2013-Oct-26 01:23S 23°47' E 151°12'0 0.0
2013-Oct-26 00:26S 23°47' E 151°12'0 0.0
2013-Oct-25 23:27S 23°47' E 151°12'2 1.9
2013-Oct-25 22:30S 23°47' E 151°10'0 0.1
2013-Oct-25 21:20S 23°47' E 151°10'0 0.0
2013-Oct-25 20:12S 23°47' E 151°10'4 5.8
2013-Oct-25 19:32S 23°49' E 151°14'0 0.0
2013-Oct-25 07:26S 23°49' E 151°14'4 4.4
2013-Oct-25 06:26S 23°46' E 151°11'0 0.0
2013-Oct-25 05:29S 23°46' E 151°11'0 0.3
2013-Oct-25 04:26S 23°46' E 151°11'2 2.7
2013-Oct-25 03:33S 23°48' E 151°12'1 0.6
2013-Oct-25 02:20S 23°47' E 151°12'1 1.4
2013-Oct-25 01:28S 23°47' E 151°11'1 0.4
2013-Oct-25 00:14S 23°47' E 151°10'2 2.4
2013-Oct-24 23:33S 23°47' E 151°12'0 0.2
2013-Oct-24 22:28S 23°47' E 151°12'1 0.6
2013-Oct-24 21:33S 23°47' E 151°12'1 0.6
2013-Oct-24 20:22S 23°47' E 151°12'4 4.4
2013-Oct-24 19:29S 23°50' E 151°15'4 0.3
2013-Oct-24 06:33S 23°47' E 151°12'2 1.5
2013-Oct-24 05:22S 23°47' E 151°10'0 0.0
2013-Oct-24 04:31S 23°47' E 151°10'0 0.0
2013-Oct-24 03:22S 23°47' E 151°10'0 0.0
2013-Oct-24 01:22S 23°47' E 151°10'0 0.0
2013-Oct-24 00:22S 23°47' E 151°10'0 0.0
2013-Oct-23 23:28S 23°47' E 151°10'0 0.1
2013-Oct-23 22:30S 23°47' E 151°10'2 1.8
2013-Oct-23 21:32S 23°47' E 151°12'0 0.0
2013-Oct-23 20:20S 23°47' E 151°12'  
2013-Oct-21 03:07S 23°50' E 151°15'2 2.9
2013-Oct-21 02:31S 23°48' E 151°14'3 2.7
2013-Oct-21 01:18S 23°47' E 151°10'0 0.1
2013-Oct-21 00:31S 23°47' E 151°10'  
Track history (hours):
 
Tides and Currents Weather Stations Pressure Air Temp Water Temp Dewpoint Dewpoint Depression Visibility Wind Speed Wind Dir Waves Ship Positions

Lorraine

Last reported at 2013-Oct-29 22:23 UTC. Time now 2014-Oct-20 23:00 UTC.
Position S 23°48' E 151°12'.
Warning: this ship's position is months out of date.

Length 15 m.

Type: Tug. MMSI: 503500800.

Date/timePositionNaut miles runAvg speedWind from/ knotsBaromVisibWave heightAir tempDewpointWater temp
2013-Oct-29 22:23S 23°48' E 151°12'1 1.6
2013-Oct-29 21:28S 23°47' E 151°10'0 0.0
2013-Oct-29 20:30S 23°47' E 151°10'3 0.2
2013-Oct-29 07:26S 23°48' E 151°13'2 1.8
2013-Oct-29 06:33S 23°48' E 151°12'1 0.5
2013-Oct-29 05:27S 23°47' E 151°11'1 0.6
2013-Oct-29 04:30S 23°47' E 151°11'1 1.2
2013-Oct-29 03:28S 23°47' E 151°12'1 0.8
2013-Oct-29 02:33S 23°48' E 151°12'1 0.6
2013-Oct-29 01:30S 23°48' E 151°12'1 0.8
2013-Oct-29 00:32S 23°47' E 151°12'0 0.1
2013-Oct-28 23:32S 23°47' E 151°12'0 0.0
2013-Oct-28 22:32S 23°47' E 151°12'1 0.7
2013-Oct-28 21:30S 23°48' E 151°12'2 1.9
2013-Oct-28 20:25S 23°47' E 151°10'4 4.4
2013-Oct-28 19:32S 23°49' E 151°14'1 0.1
2013-Oct-28 07:06S 23°50' E 151°14'3 5.0
2013-Oct-28 06:27S 23°47' E 151°12'1 0.5
2013-Oct-28 05:29S 23°48' E 151°12'1 0.8
2013-Oct-28 04:25S 23°47' E 151°12'0 0.1
2013-Oct-28 03:22S 23°47' E 151°12'1 1.7
2013-Oct-28 02:34S 23°46' E 151°11'3 1.4
2013-Oct-28 00:09S 23°48' E 151°13'3 5.7
2013-Oct-27 23:33S 23°46' E 151°11'2 1.5
2013-Oct-27 22:29S 23°47' E 151°10'2 1.4
2013-Oct-27 21:16S 23°47' E 151°12'0 0.0
2013-Oct-27 20:31S 23°47' E 151°12'0 0.0
2013-Oct-26 07:30S 23°47' E 151°12'1 0.5
2013-Oct-26 06:22S 23°48' E 151°13'1 0.4
2013-Oct-26 04:30S 23°47' E 151°12'1 0.4
2013-Oct-26 02:26S 23°47' E 151°13'1 0.5
2013-Oct-26 01:23S 23°47' E 151°12'0 0.0
2013-Oct-26 00:26S 23°47' E 151°12'0 0.0
2013-Oct-25 23:27S 23°47' E 151°12'2 1.9
2013-Oct-25 22:30S 23°47' E 151°10'0 0.1
2013-Oct-25 21:20S 23°47' E 151°10'0 0.0
2013-Oct-25 20:12S 23°47' E 151°10'4 5.8
2013-Oct-25 19:32S 23°49' E 151°14'0 0.0
2013-Oct-25 07:26S 23°49' E 151°14'4 4.4
2013-Oct-25 06:26S 23°46' E 151°11'0 0.0
2013-Oct-25 05:29S 23°46' E 151°11'0 0.3
2013-Oct-25 04:26S 23°46' E 151°11'2 2.7
2013-Oct-25 03:33S 23°48' E 151°12'1 0.6
2013-Oct-25 02:20S 23°47' E 151°12'1 1.4
2013-Oct-25 01:28S 23°47' E 151°11'1 0.4
2013-Oct-25 00:14S 23°47' E 151°10'2 2.4
2013-Oct-24 23:33S 23°47' E 151°12'0 0.2
2013-Oct-24 22:28S 23°47' E 151°12'1 0.6
2013-Oct-24 21:33S 23°47' E 151°12'1 0.6
2013-Oct-24 20:22S 23°47' E 151°12'4 4.4
2013-Oct-24 19:29S 23°50' E 151°15'4 0.3
2013-Oct-24 06:33S 23°47' E 151°12'2 1.5
2013-Oct-24 05:22S 23°47' E 151°10'0 0.0
2013-Oct-24 04:31S 23°47' E 151°10'0 0.0
2013-Oct-24 03:22S 23°47' E 151°10'0 0.0
2013-Oct-24 01:22S 23°47' E 151°10'0 0.0
2013-Oct-24 00:22S 23°47' E 151°10'0 0.0
2013-Oct-23 23:28S 23°47' E 151°10'0 0.1
2013-Oct-23 22:30S 23°47' E 151°10'2 1.8
2013-Oct-23 21:32S 23°47' E 151°12'0 0.0
2013-Oct-23 20:20S 23°47' E 151°12'  
2013-Oct-21 03:07S 23°50' E 151°15'2 2.9
2013-Oct-21 02:31S 23°48' E 151°14'3 2.7
2013-Oct-21 01:18S 23°47' E 151°10'0 0.1
2013-Oct-21 00:31S 23°47' E 151°10'  

Dump ship's entire track history